Time;durP1;ratioP1;P1;durP2;ratioP2;P2;SDS_P1;SDS_P2;PMS_P1;PMS_P2;Temp;Humidity;BMP_temperature;BMP_pressure;BME280_temperature;BME280_humidity;BME280_pressure;Samples;Min_cycle;Max_cycle;Signal;HPM_P1;HPM_P2
2023/12/14 00:01:26;;;;;;;8.98;6.40;;;;;;;;;;5064440;28;41410;-69
2023/12/14 00:03:55;;;;;;;9.30;6.75;;;;;;;;;;5059519;28;41059;-69
2023/12/14 00:06:23;;;;;;;9.43;6.60;;;;;;;;;;5066011;28;42382;-68
2023/12/14 00:08:51;;;;;;;8.98;6.03;;;;;;;;;;5056757;28;42512;-72
2023/12/14 00:11:19;;;;;;;7.70;6.30;;;;;;;;;;5054992;28;41384;-73
2023/12/14 00:13:47;;;;;;;7.63;5.90;;;;;;;;;;5065435;28;41259;-75
2023/12/14 00:16:15;;;;;;;7.80;6.15;;;;;;;;;;5067594;28;43121;-74
2023/12/14 00:18:43;;;;;;;6.72;5.40;;;;;;;;;;5066169;28;40141;-75
2023/12/14 00:21:12;;;;;;;7.43;5.63;;;;;;;;;;5067656;28;41543;-74
2023/12/14 00:23:40;;;;;;;8.60;6.38;;;;;;;;;;5066967;28;33479;-74
2023/12/14 00:26:08;;;;;;;11.65;6.05;;;;;;;;;;5068102;28;41691;-74
2023/12/14 00:28:36;;;;;;;9.50;5.82;;;;;;;;;;5063520;28;42025;-74
2023/12/14 00:31:05;;;;;;;6.53;5.78;;;;;;;;;;5060291;28;40632;-75
2023/12/14 00:33:33;;;;;;;6.03;5.10;;;;;;;;;;5067311;28;41591;-74
2023/12/14 00:36:01;;;;;;;7.80;5.50;;;;;;;;;;5057728;28;42127;-74
2023/12/14 00:38:30;;;;;;;8.48;5.70;;;;;;;;;;5060508;28;41977;-75
2023/12/14 00:40:58;;;;;;;9.90;6.30;;;;;;;;;;5041699;28;40743;-74
2023/12/14 00:43:26;;;;;;;6.82;5.60;;;;;;;;;;5060404;28;42642;-74
2023/12/14 00:45:54;;;;;;;9.63;5.30;;;;;;;;;;5067020;28;42647;-74
2023/12/14 00:48:22;;;;;;;6.95;5.65;;;;;;;;;;5061743;28;42328;-75
2023/12/14 00:50:50;;;;;;;7.68;5.72;;;;;;;;;;5064655;28;40995;-75
2023/12/14 00:53:18;;;;;;;7.35;5.75;;;;;;;;;;5056581;28;41595;-75
2023/12/14 00:55:47;;;;;;;7.10;5.55;;;;;;;;;;5066585;28;42722;-74
2023/12/14 00:58:15;;;;;;;7.40;6.03;;;;;;;;;;5067408;28;39853;-74
2023/12/14 01:00:43;;;;;;;5.95;5.15;;;;;;;;;;5066446;28;41450;-74
2023/12/14 01:03:11;;;;;;;7.53;5.88;;;;;;;;;;5068135;28;41553;-75
2023/12/14 01:05:39;;;;;;;8.20;5.65;;;;;;;;;;5066324;28;41374;-74
2023/12/14 01:08:07;;;;;;;11.02;5.63;;;;;;;;;;5072587;28;42998;-74
2023/12/14 01:10:36;;;;;;;7.07;5.68;;;;;;;;;;5072098;28;40397;-74
2023/12/14 01:13:05;;;;;;;6.13;5.03;;;;;;;;;;5061047;28;42784;-74
2023/12/14 01:15:33;;;;;;;5.75;5.07;;;;;;;;;;5058101;28;42043;-74
2023/12/14 01:18:01;;;;;;;5.18;4.60;;;;;;;;;;5073378;28;40106;-74
2023/12/14 01:20:29;;;;;;;6.63;5.72;;;;;;;;;;5080742;28;41560;-74
2023/12/14 01:22:57;;;;;;;6.63;5.57;;;;;;;;;;5066321;28;41840;-74
2023/12/14 01:25:25;;;;;;;6.13;4.90;;;;;;;;;;5052011;28;40959;-74
2023/12/14 01:27:53;;;;;;;7.22;5.60;;;;;;;;;;5066612;28;42703;-74
2023/12/14 01:30:23;;;;;;;6.13;5.18;;;;;;;;;;5065460;28;39600;-74
2023/12/14 01:32:51;;;;;;;6.07;4.57;;;;;;;;;;5057585;28;41571;-74
2023/12/14 01:35:19;;;;;;;6.07;4.68;;;;;;;;;;5047448;28;43664;-74
2023/12/14 01:37:47;;;;;;;5.35;4.70;;;;;;;;;;5065097;28;40366;-74
2023/12/14 01:40:15;;;;;;;6.00;4.55;;;;;;;;;;5066409;28;41214;-74
2023/12/14 01:42:43;;;;;;;5.35;4.45;;;;;;;;;;5046187;28;42773;-74
2023/12/14 01:45:13;;;;;;;4.90;4.40;;;;;;;;;;5058758;28;40006;-74
2023/12/14 01:47:42;;;;;;;6.45;5.07;;;;;;;;;;5066568;28;41332;-74
2023/12/14 01:50:10;;;;;;;5.47;4.40;;;;;;;;;;5064845;28;41752;-74
2023/12/14 01:52:38;;;;;;;5.40;4.50;;;;;;;;;;5065121;28;41224;-74
2023/12/14 01:55:07;;;;;;;6.55;4.93;;;;;;;;;;5056696;28;42199;-74
2023/12/14 01:57:34;;;;;;;5.70;4.80;;;;;;;;;;5066328;28;40334;-75
2023/12/14 02:00:03;;;;;;;5.72;4.85;;;;;;;;;;5066488;28;41786;-74
2023/12/14 02:02:31;;;;;;;4.25;3.83;;;;;;;;;;5067289;28;43561;-74
2023/12/14 02:05:02;;;;;;;4.53;3.97;;;;;;;;;;5050365;28;40246;-74
2023/12/14 02:07:31;;;;;;;4.53;4.03;;;;;;;;;;5071764;28;20323;-74
2023/12/14 02:09:59;;;;;;;6.28;4.30;;;;;;;;;;5062378;28;42750;-75
2023/12/14 02:12:27;;;;;;;5.90;4.70;;;;;;;;;;5069857;28;39751;-74
2023/12/14 02:14:56;;;;;;;4.68;4.05;;;;;;;;;;5050956;28;40361;-74
2023/12/14 02:17:24;;;;;;;5.25;4.13;;;;;;;;;;5069244;28;40954;-74
2023/12/14 02:19:52;;;;;;;5.07;4.20;;;;;;;;;;5068922;28;41652;-74
2023/12/14 02:22:22;;;;;;;4.60;3.90;;;;;;;;;;5069935;28;41723;-74
2023/12/14 02:24:51;;;;;;;4.55;3.90;;;;;;;;;;5069460;28;40782;-74
2023/12/14 02:27:19;;;;;;;5.97;4.57;;;;;;;;;;5068935;28;41540;-74
2023/12/14 02:29:47;;;;;;;4.82;4.32;;;;;;;;;;5069700;28;42226;-74
2023/12/14 02:32:15;;;;;;;4.45;3.88;;;;;;;;;;5069612;28;41902;-74
2023/12/14 02:34:43;;;;;;;5.70;4.10;;;;;;;;;;5069873;28;42339;-74
2023/12/14 02:37:11;;;;;;;4.25;3.85;;;;;;;;;;5069773;28;40017;-74
2023/12/14 02:39:39;;;;;;;4.88;3.83;;;;;;;;;;5061826;28;41775;-74
2023/12/14 02:42:08;;;;;;;4.60;4.00;;;;;;;;;;5068244;28;41511;-74
2023/12/14 02:44:36;;;;;;;4.47;3.90;;;;;;;;;;5068888;28;40177;-74
2023/12/14 02:47:04;;;;;;;4.85;4.35;;;;;;;;;;5068483;28;42593;-74
2023/12/14 02:49:33;;;;;;;4.63;4.03;;;;;;;;;;5066700;28;41977;-74
2023/12/14 02:52:01;;;;;;;4.68;4.10;;;;;;;;;;5068645;28;40064;-74
2023/12/14 02:54:29;;;;;;;4.68;4.18;;;;;;;;;;5069514;28;41773;-74
2023/12/14 02:56:57;;;;;;;5.25;3.95;;;;;;;;;;5068744;28;40391;-74
2023/12/14 02:59:26;;;;;;;4.68;4.10;;;;;;;;;;5051927;28;41616;-74
2023/12/14 03:01:54;;;;;;;4.35;3.65;;;;;;;;;;5063839;28;41718;-75
2023/12/14 03:04:22;;;;;;;4.47;3.53;;;;;;;;;;5068377;28;40260;-74
2023/12/14 03:06:50;;;;;;;3.67;3.33;;;;;;;;;;5068509;28;42573;-74
2023/12/14 03:09:19;;;;;;;4.28;3.88;;;;;;;;;;5055090;28;42018;-75
2023/12/14 03:11:47;;;;;;;4.68;4.25;;;;;;;;;;5060266;28;40368;-74
2023/12/14 03:14:15;;;;;;;4.93;4.25;;;;;;;;;;5055828;28;41367;-74
2023/12/14 03:16:44;;;;;;;4.88;3.60;;;;;;;;;;5069496;28;42498;-74
2023/12/14 03:19:12;;;;;;;4.47;3.58;;;;;;;;;;5068693;28;42668;-74
2023/12/14 03:21:40;;;;;;;4.10;3.70;;;;;;;;;;5068442;28;41859;-74
2023/12/14 03:24:09;;;;;;;3.70;3.40;;;;;;;;;;5082757;28;40491;-74
2023/12/14 03:26:37;;;;;;;4.07;3.67;;;;;;;;;;5069211;28;41167;-74
2023/12/14 03:29:05;;;;;;;3.67;3.28;;;;;;;;;;5067556;28;42571;-74
2023/12/14 03:31:33;;;;;;;5.22;4.45;;;;;;;;;;5068443;28;42214;-74
2023/12/14 03:34:02;;;;;;;4.05;3.65;;;;;;;;;;5050653;28;39579;-74
2023/12/14 03:36:29;;;;;;;4.78;4.35;;;;;;;;;;5067676;28;41983;-75
2023/12/14 03:38:57;;;;;;;3.75;3.38;;;;;;;;;;5068243;28;41304;-74
2023/12/14 03:41:25;;;;;;;4.90;4.40;;;;;;;;;;5068537;28;42567;-74
2023/12/14 03:43:53;;;;;;;4.30;3.25;;;;;;;;;;5067969;28;39957;-75
2023/12/14 03:46:21;;;;;;;3.50;3.20;;;;;;;;;;5068627;28;42513;-75
2023/12/14 03:48:49;;;;;;;4.45;3.83;;;;;;;;;;5068565;28;42099;-75
2023/12/14 03:51:19;;;;;;;3.80;3.30;;;;;;;;;;5067824;28;39939;-74
2023/12/14 03:53:47;;;;;;;4.20;3.63;;;;;;;;;;5068594;28;41055;-74
2023/12/14 03:56:15;;;;;;;3.70;3.40;;;;;;;;;;5068384;28;41987;-74
2023/12/14 03:58:43;;;;;;;4.63;3.70;;;;;;;;;;5049028;28;38646;-74
2023/12/14 04:01:16;;;;;;;4.07;3.10;;;;;;;;;;5057858;28;41049;-74
2023/12/14 04:03:44;;;;;;;4.30;3.90;;;;;;;;;;5052941;28;40491;-75
2023/12/14 04:06:12;;;;;;;4.18;3.78;;;;;;;;;;5057733;28;41518;-74
2023/12/14 04:08:41;;;;;;;4.15;3.45;;;;;;;;;;5050701;28;43198;-73
2023/12/14 04:11:09;;;;;;;3.25;2.95;;;;;;;;;;5055166;28;40883;-74
2023/12/14 04:13:38;;;;;;;3.50;3.00;;;;;;;;;;5067798;28;41506;-75
2023/12/14 04:16:06;;;;;;;3.53;3.22;;;;;;;;;;5074925;28;43173;-74
2023/12/14 04:18:35;;;;;;;3.88;2.85;;;;;;;;;;5073025;28;41599;-74
2023/12/14 04:21:03;;;;;;;3.42;3.13;;;;;;;;;;5072114;28;41849;-74
2023/12/14 04:23:31;;;;;;;2.95;2.65;;;;;;;;;;5075905;28;43117;-74
2023/12/14 04:26:00;;;;;;;3.53;3.15;;;;;;;;;;5080163;28;42286;-74
2023/12/14 04:28:28;;;;;;;3.25;2.95;;;;;;;;;;5067814;28;42673;-74
2023/12/14 04:30:56;;;;;;;3.78;3.40;;;;;;;;;;5061451;28;40390;-74
2023/12/14 04:33:24;;;;;;;3.20;2.88;;;;;;;;;;5066160;28;41515;-75
2023/12/14 04:35:52;;;;;;;3.63;3.05;;;;;;;;;;5066503;28;43154;-74
2023/12/14 04:38:20;;;;;;;2.92;2.58;;;;;;;;;;5074102;28;39765;-75
2023/12/14 04:40:48;;;;;;;4.38;3.72;;;;;;;;;;5073330;28;41752;-74
2023/12/14 04:43:18;;;;;;;3.40;2.70;;;;;;;;;;5080911;28;41633;-74
2023/12/14 04:45:46;;;;;;;3.33;3.03;;;;;;;;;;5067365;28;42623;-74
2023/12/14 04:48:14;;;;;;;3.58;3.25;;;;;;;;;;5066373;28;42183;-74
2023/12/14 04:50:42;;;;;;;3.08;2.88;;;;;;;;;;5056544;28;41393;-74
2023/12/14 04:53:10;;;;;;;2.97;2.70;;;;;;;;;;5062355;28;42640;-74
2023/12/14 04:55:38;;;;;;;3.13;2.83;;;;;;;;;;5075818;28;42137;-74
2023/12/14 04:58:06;;;;;;;3.00;2.50;;;;;;;;;;5070008;28;40383;-74
2023/12/14 05:00:35;;;;;;;3.20;2.90;;;;;;;;;;5068023;28;41600;-74
2023/12/14 05:03:03;;;;;;;3.22;2.92;;;;;;;;;;5067294;28;41659;-74
2023/12/14 05:05:31;;;;;;;3.25;2.70;;;;;;;;;;5067679;28;40574;-74
2023/12/14 05:07:59;;;;;;;3.10;2.80;;;;;;;;;;5066259;28;42396;-74
2023/12/14 05:10:27;;;;;;;3.90;3.10;;;;;;;;;;5067455;28;41718;-74
2023/12/14 05:12:55;;;;;;;2.85;2.47;;;;;;;;;;5067502;28;41064;-74
2023/12/14 05:15:23;;;;;;;3.40;3.10;;;;;;;;;;5063275;28;41681;-74
2023/12/14 05:17:52;;;;;;;3.55;3.25;;;;;;;;;;5055930;28;40256;-74
2023/12/14 05:20:21;;;;;;;2.72;2.50;;;;;;;;;;5066495;28;42317;-74
2023/12/14 05:22:49;;;;;;;3.20;2.70;;;;;;;;;;5085012;28;41971;-75
2023/12/14 05:25:20;;;;;;;3.47;3.17;;;;;;;;;;5075573;28;39914;-77
2023/12/14 05:27:48;;;;;;;3.20;2.90;;;;;;;;;;5067744;28;41025;-75
2023/12/14 05:30:16;;;;;;;3.15;2.83;;;;;;;;;;5074337;28;39764;-75
2023/12/14 05:32:44;;;;;;;3.78;3.22;;;;;;;;;;5076388;28;41801;-76
2023/12/14 05:35:13;;;;;;;3.55;3.05;;;;;;;;;;5064871;28;42380;-76
2023/12/14 05:37:41;;;;;;;3.33;3.03;;;;;;;;;;5059151;28;40705;-76
2023/12/14 05:40:10;;;;;;;2.30;2.10;;;;;;;;;;5082035;28;41595;-76
2023/12/14 05:42:38;;;;;;;2.45;2.25;;;;;;;;;;5083874;28;43866;-76
2023/12/14 05:45:07;;;;;;;4.13;2.90;;;;;;;;;;5083860;28;39883;-76
2023/12/14 05:47:39;;;;;;;2.70;2.50;;;;;;;;;;5067646;28;41671;-76
2023/12/14 05:50:09;;;;;;;4.05;3.08;;;;;;;;;;5070236;28;40814;-76
2023/12/14 05:52:40;;;;;;;2.97;2.70;;;;;;;;;;5070092;28;41454;-75
2023/12/14 05:55:08;;;;;;;3.08;2.78;;;;;;;;;;5067969;28;41760;-76
2023/12/14 05:57:36;;;;;;;3.10;2.75;;;;;;;;;;5063386;28;41099;-75
2023/12/14 06:00:05;;;;;;;3.67;3.35;;;;;;;;;;5069811;28;41756;-76
2023/12/14 06:02:33;;;;;;;3.08;2.83;;;;;;;;;;5070443;28;41715;-76
2023/12/14 06:05:02;;;;;;;3.58;3.25;;;;;;;;;;5065628;28;39240;-75
2023/12/14 06:07:30;;;;;;;4.00;2.65;;;;;;;;;;5070276;28;42665;-75
2023/12/14 06:10:00;;;;;;;3.00;2.47;;;;;;;;;;5069065;28;42993;-76
2023/12/14 06:12:28;;;;;;;4.18;3.38;;;;;;;;;;5067396;28;39844;-75
2023/12/14 06:14:56;;;;;;;3.83;2.40;;;;;;;;;;5070140;28;43220;-75
2023/12/14 06:17:24;;;;;;;3.83;3.50;;;;;;;;;;5068934;28;41342;-75
2023/12/14 06:19:55;;;;;;;3.15;2.63;;;;;;;;;;5078987;28;41827;-76
2023/12/14 06:22:23;;;;;;;3.88;3.22;;;;;;;;;;5073196;28;42930;-76
2023/12/14 06:24:51;;;;;;;3.40;3.10;;;;;;;;;;5069395;28;40968;-75
2023/12/14 06:27:23;;;;;;;3.50;2.70;;;;;;;;;;5069943;28;41740;-75
2023/12/14 06:29:50;;;;;;;2.60;2.25;;;;;;;;;;5069434;28;42754;-75
2023/12/14 06:32:18;;;;;;;2.72;2.22;;;;;;;;;;5066855;28;40467;-75
2023/12/14 06:34:47;;;;;;;2.72;2.30;;;;;;;;;;5068187;28;41650;-76
2023/12/14 06:37:15;;;;;;;2.22;2.03;;;;;;;;;;5070280;28;39162;-75
2023/12/14 06:39:43;;;;;;;3.30;2.90;;;;;;;;;;5063918;28;41690;-75
2023/12/14 06:42:11;;;;;;;2.60;2.40;;;;;;;;;;5070070;28;42723;-75
2023/12/14 06:44:41;;;;;;;3.22;2.72;;;;;;;;;;5066409;28;40175;-75
2023/12/14 06:47:09;;;;;;;3.08;2.72;;;;;;;;;;5064155;28;41695;-73
2023/12/14 06:49:37;;;;;;;3.10;2.80;;;;;;;;;;5066090;28;42140;-74
2023/12/14 06:52:05;;;;;;;2.85;2.55;;;;;;;;;;5067089;28;40345;-74
2023/12/14 06:54:33;;;;;;;3.67;3.13;;;;;;;;;;5066480;28;42169;-74
2023/12/14 06:57:01;;;;;;;4.00;3.13;;;;;;;;;;5068821;28;41353;-75
2023/12/14 06:59:29;;;;;;;3.83;2.58;;;;;;;;;;5064815;28;42608;-76
2023/12/14 07:01:59;;;;;;;7.15;3.22;;;;;;;;;;5069299;28;41737;-76
2023/12/14 07:04:27;;;;;;;3.30;2.03;;;;;;;;;;5068097;28;41119;-74
2023/12/14 07:06:55;;;;;;;5.03;3.28;;;;;;;;;;5065557;28;41712;-75
2023/12/14 07:09:23;;;;;;;3.58;2.65;;;;;;;;;;5069077;28;42037;-75
2023/12/14 07:11:51;;;;;;;2.83;2.60;;;;;;;;;;5065990;28;40132;-77
2023/12/14 07:14:19;;;;;;;4.32;3.03;;;;;;;;;;5056532;28;41491;-78
2023/12/14 07:16:49;;;;;;;2.88;2.53;;;;;;;;;;5064640;28;43144;-77
2023/12/14 07:19:18;;;;;;;3.35;2.38;;;;;;;;;;5067511;28;42192;-77
2023/12/14 07:21:46;;;;;;;3.08;2.72;;;;;;;;;;5058041;28;41964;-76
2023/12/14 07:24:14;;;;;;;3.72;3.10;;;;;;;;;;5057235;28;41240;-76
2023/12/14 07:26:42;;;;;;;3.13;2.35;;;;;;;;;;5065121;28;42680;-76
2023/12/14 07:29:10;;;;;;;6.78;3.22;;;;;;;;;;5061196;28;41598;-77
2023/12/14 07:31:38;;;;;;;3.08;2.63;;;;;;;;;;5068996;28;41090;-79
2023/12/14 07:34:06;;;;;;;5.32;2.75;;;;;;;;;;5069051;28;41661;-80
2023/12/14 07:36:38;;;;;;;4.07;3.00;;;;;;;;;;5066535;28;42791;-79
2023/12/14 07:39:06;;;;;;;6.00;3.25;;;;;;;;;;5065247;28;41977;-79
2023/12/14 07:41:34;;;;;;;3.95;2.70;;;;;;;;;;5065484;28;42686;-79
2023/12/14 07:44:02;;;;;;;3.25;2.35;;;;;;;;;;5067154;28;41053;-80
2023/12/14 07:46:34;;;;;;;3.30;2.75;;;;;;;;;;5066068;28;42003;-80
2023/12/14 07:49:02;;;;;;;3.95;2.63;;;;;;;;;;5059216;28;42318;-80
2023/12/14 07:51:30;;;;;;;4.25;3.33;;;;;;;;;;5064170;28;41044;-80
2023/12/14 07:54:00;;;;;;;2.35;2.15;;;;;;;;;;5066269;28;41535;-80
2023/12/14 07:56:28;;;;;;;3.53;2.30;;;;;;;;;;5066104;28;42433;-80
2023/12/14 07:58:56;;;;;;;2.35;2.10;;;;;;;;;;5067083;28;40100;-80
2023/12/14 08:01:24;;;;;;;4.30;2.83;;;;;;;;;;5065290;28;41295;-80
2023/12/14 08:03:52;;;;;;;3.35;2.80;;;;;;;;;;5061236;28;41443;-80
2023/12/14 08:06:20;;;;;;;4.53;3.38;;;;;;;;;;5067392;28;41235;-80
2023/12/14 08:08:48;;;;;;;3.58;2.78;;;;;;;;;;5063322;28;42533;-79
2023/12/14 08:11:17;;;;;;;4.20;3.40;;;;;;;;;;5058417;28;39721;-79
2023/12/14 08:13:45;;;;;;;3.33;2.92;;;;;;;;;;5062294;28;41288;-79
2023/12/14 08:16:13;;;;;;;6.38;2.30;;;;;;;;;;5065792;28;41836;-79
2023/12/14 08:18:42;;;;;;;4.57;2.97;;;;;;;;;;5062043;28;39829;-79
2023/12/14 08:21:10;;;;;;;3.13;2.67;;;;;;;;;;5067866;28;42623;-79
2023/12/14 08:23:40;;;;;;;3.17;2.70;;;;;;;;;;5067766;28;41906;-78
2023/12/14 08:26:08;;;;;;;3.47;2.85;;;;;;;;;;5080533;28;42601;-79
2023/12/14 08:28:37;;;;;;;2.97;2.65;;;;;;;;;;5068241;28;41694;-79
2023/12/14 08:31:05;;;;;;;5.95;2.92;;;;;;;;;;5080815;28;40394;-79
2023/12/14 08:33:33;;;;;;;3.40;2.30;;;;;;;;;;5040531;28;40916;-79
2023/12/14 08:36:01;;;;;;;3.03;2.40;;;;;;;;;;5063280;28;42128;-79
2023/12/14 08:38:29;;;;;;;3.15;2.70;;;;;;;;;;5075242;28;40085;-78
2023/12/14 08:40:57;;;;;;;2.83;2.53;;;;;;;;;;5071874;28;42241;-79
2023/12/14 08:43:26;;;;;;;5.22;2.63;;;;;;;;;;5054146;28;43117;-79
2023/12/14 08:45:55;;;;;;;2.95;2.30;;;;;;;;;;5074247;28;41331;-76
2023/12/14 08:48:23;;;;;;;6.07;2.90;;;;;;;;;;5068546;28;42145;-70
2023/12/14 08:50:52;;;;;;;4.05;2.45;;;;;;;;;;5060161;28;40652;-71
2023/12/14 08:53:20;;;;;;;5.80;2.70;;;;;;;;;;5063602;28;41571;-72
2023/12/14 08:55:48;;;;;;;6.90;2.80;;;;;;;;;;5066747;28;42644;-72
2023/12/14 08:58:16;;;;;;;3.50;3.15;;;;;;;;;;5064594;28;40281;-71
2023/12/14 09:00:44;;;;;;;4.22;2.65;;;;;;;;;;5051117;28;41473;-72
2023/12/14 09:03:13;;;;;;;6.80;2.85;;;;;;;;;;5066663;28;41850;-72
2023/12/14 09:05:42;;;;;;;6.47;2.50;;;;;;;;;;5064954;28;40156;-72
2023/12/14 09:08:10;;;;;;;4.47;3.08;;;;;;;;;;5055680;28;42721;-72
2023/12/14 09:10:39;;;;;;;5.30;3.45;;;;;;;;;;5060797;28;40114;-72
2023/12/14 09:13:07;;;;;;;5.03;2.47;;;;;;;;;;5056718;28;41768;-68
2023/12/14 09:15:35;;;;;;;3.70;2.90;;;;;;;;;;5070029;28;41975;-73
2023/12/14 09:18:03;;;;;;;8.35;3.67;;;;;;;;;;5069721;28;40799;-72
2023/12/14 09:20:35;;;;;;;6.55;3.10;;;;;;;;;;5068963;28;42637;-72
2023/12/14 09:23:03;;;;;;;5.82;3.15;;;;;;;;;;5068853;28;42729;-72
2023/12/14 09:25:31;;;;;;;7.97;2.85;;;;;;;;;;5069294;28;40359;-72
2023/12/14 09:27:58;;;;;;;6.97;3.33;;;;;;;;;;5066932;28;41648;-72
2023/12/14 09:30:26;;;;;;;4.95;3.25;;;;;;;;;;5061880;28;41360;-73
2023/12/14 09:32:54;;;;;;;4.70;3.10;;;;;;;;;;5069288;28;42289;-73
2023/12/14 09:35:23;;;;;;;5.63;3.75;;;;;;;;;;5067948;28;42007;-73
2023/12/14 09:37:53;;;;;;;9.63;3.13;;;;;;;;;;5068870;28;41285;-72
2023/12/14 09:40:22;;;;;;;6.90;2.40;;;;;;;;;;5066165;28;42128;-72
2023/12/14 09:42:50;;;;;;;3.80;2.42;;;;;;;;;;5066271;28;42627;-72
2023/12/14 09:45:18;;;;;;;4.20;2.50;;;;;;;;;;5067949;28;40594;-72
2023/12/14 09:47:45;;;;;;;4.28;2.60;;;;;;;;;;5067515;28;41760;-72
2023/12/14 09:50:14;;;;;;;8.30;3.58;;;;;;;;;;5068826;28;42107;-73
2023/12/14 09:52:45;;;;;;;3.72;2.22;;;;;;;;;;5067776;28;42735;-72
2023/12/14 09:55:14;;;;;;;4.25;2.60;;;;;;;;;;5066579;28;42980;-72
2023/12/14 09:57:42;;;;;;;4.30;2.63;;;;;;;;;;5069085;28;40296;-72
2023/12/14 10:00:13;;;;;;;4.47;2.85;;;;;;;;;;5066629;28;41690;-73
2023/12/14 10:02:41;;;;;;;6.45;2.25;;;;;;;;;;5068027;28;41823;-72
2023/12/14 10:05:10;;;;;;;4.30;2.70;;;;;;;;;;5067956;28;39951;-72
2023/12/14 10:07:39;;;;;;;3.78;2.45;;;;;;;;;;5068223;28;42147;-72
2023/12/14 10:10:10;;;;;;;3.58;2.70;;;;;;;;;;5068141;28;42109;-72
2023/12/14 10:12:41;;;;;;;4.20;2.08;;;;;;;;;;5069126;28;39818;-72
2023/12/14 10:15:10;;;;;;;4.68;3.13;;;;;;;;;;5064918;28;41538;-72
2023/12/14 10:17:38;;;;;;;4.03;2.35;;;;;;;;;;5068064;28;41345;-72
2023/12/14 10:20:09;;;;;;;6.05;2.95;;;;;;;;;;5069197;28;42705;-72
2023/12/14 10:22:37;;;;;;;3.03;2.45;;;;;;;;;;5069452;28;43155;-72
2023/12/14 10:25:09;;;;;;;4.68;2.92;;;;;;;;;;5067332;28;40344;-72
2023/12/14 10:27:38;;;;;;;4.65;3.40;;;;;;;;;;5066746;28;41644;-72
2023/12/14 10:30:12;;;;;;;5.38;2.45;;;;;;;;;;5062626;28;42704;-72
2023/12/14 10:32:41;;;;;;;5.57;2.92;;;;;;;;;;5046797;28;41484;-69
2023/12/14 10:35:09;;;;;;;4.97;3.00;;;;;;;;;;5066805;28;41416;-72
2023/12/14 10:37:38;;;;;;;4.65;2.28;;;;;;;;;;5064195;28;40273;-72
2023/12/14 10:40:07;;;;;;;5.88;3.15;;;;;;;;;;5066527;28;42892;-72
2023/12/14 10:42:35;;;;;;;4.28;2.80;;;;;;;;;;5069249;28;41860;-70
2023/12/14 10:45:03;;;;;;;7.85;3.03;;;;;;;;;;5066998;28;40356;-72
2023/12/14 10:47:47;;;;;;;3.78;2.15;;;;;;;;;;5064589;28;41802;-72
2023/12/14 10:50:16;;;;;;;6.18;2.53;;;;;;;;;;5065509;28;41794;-72
2023/12/14 10:52:45;;;;;;;3.97;2.92;;;;;;;;;;5068045;28;40237;-72
2023/12/14 10:55:15;;;;;;;2.53;2.20;;;;;;;;;;5068336;28;41464;-73
2023/12/14 10:57:43;;;;;;;3.72;3.25;;;;;;;;;;5065874;28;33096;-73
2023/12/14 11:00:15;;;;;;;3.03;2.60;;;;;;;;;;5067328;28;42415;-73
2023/12/14 11:02:47;;;;;;;4.55;2.85;;;;;;;;;;5067947;28;42285;-73
2023/12/14 11:05:19;;;;;;;4.18;2.85;;;;;;;;;;5055942;28;40162;-72
2023/12/14 11:07:47;;;;;;;3.85;3.28;;;;;;;;;;5064991;28;41288;-73
2023/12/14 11:10:16;;;;;;;5.35;3.47;;;;;;;;;;5067845;28;43168;-73
2023/12/14 11:12:55;;;;;;;5.60;3.00;;;;;;;;;;5058597;28;40449;-72
2023/12/14 11:15:23;;;;;;;2.72;2.30;;;;;;;;;;5078275;28;41522;-72
2023/12/14 11:18:09;;;;;;;5.22;2.10;;;;;;;;;;5049705;28;40688;-73
2023/12/14 11:20:49;;;;;;;3.28;2.60;;;;;;;;;;5080592;28;41867;-72
2023/12/14 11:23:19;;;;;;;4.53;2.55;;;;;;;;;;5067800;28;43789;-75
2023/12/14 11:25:48;;;;;;;2.78;2.20;;;;;;;;;;5067293;28;39962;-75
2023/12/14 11:28:23;;;;;;;3.55;3.20;;;;;;;;;;5073773;28;41199;-75
2023/12/14 11:30:55;;;;;;;4.13;2.70;;;;;;;;;;5068485;28;43055;-75
2023/12/14 11:33:22;;;;;;;2.95;2.42;;;;;;;;;;5076206;28;40253;-75
2023/12/14 11:35:52;;;;;;;4.43;3.00;;;;;;;;;;5069640;28;42124;-75
2023/12/14 11:38:22;;;;;;;5.53;3.47;;;;;;;;;;5055284;28;42638;-73
2023/12/14 11:40:50;;;;;;;4.07;2.55;;;;;;;;;;5081593;28;40153;-73
2023/12/14 11:43:20;;;;;;;3.47;2.78;;;;;;;;;;5073327;28;41801;-73
2023/12/14 11:45:49;;;;;;;3.35;2.92;;;;;;;;;;5072140;28;41994;-72
2023/12/14 11:48:19;;;;;;;3.42;2.60;;;;;;;;;;5066798;28;41808;-72
2023/12/14 11:50:47;;;;;;;3.85;3.15;;;;;;;;;;5067631;28;41652;-73
2023/12/14 11:53:17;;;;;;;3.50;2.40;;;;;;;;;;5066973;28;40309;-73
2023/12/14 11:55:45;;;;;;;3.58;2.60;;;;;;;;;;5066426;28;41644;-72
2023/12/14 11:58:14;;;;;;;3.58;2.88;;;;;;;;;;5081650;28;42525;-72
2023/12/14 12:00:42;;;;;;;3.60;2.45;;;;;;;;;;5067416;28;40886;-72
2023/12/14 12:03:11;;;;;;;3.30;2.85;;;;;;;;;;5063670;28;41353;-72
2023/12/14 12:05:39;;;;;;;3.35;2.90;;;;;;;;;;5066361;28;39868;-72
2023/12/14 12:08:08;;;;;;;3.70;2.78;;;;;;;;;;5067164;28;41614;-73
2023/12/14 12:10:37;;;;;;;2.70;2.25;;;;;;;;;;5071132;28;41848;-73
2023/12/14 12:13:06;;;;;;;6.78;2.70;;;;;;;;;;5066219;28;41939;-73
2023/12/14 12:15:35;;;;;;;4.88;2.63;;;;;;;;;;5067070;28;41640;-72
2023/12/14 12:18:04;;;;;;;8.23;3.35;;;;;;;;;;5060915;28;41449;-75
2023/12/14 12:20:33;;;;;;;11.70;3.53;;;;;;;;;;5064630;28;40693;-73
2023/12/14 12:23:01;;;;;;;12.75;3.88;;;;;;;;;;5064769;28;41608;-73
2023/12/14 12:25:29;;;;;;;10.25;3.58;;;;;;;;;;5056315;28;42471;-73
2023/12/14 12:27:58;;;;;;;8.10;2.88;;;;;;;;;;5066456;28;40950;-72
2023/12/14 12:30:26;;;;;;;7.53;3.33;;;;;;;;;;5063752;28;42272;-73
2023/12/14 12:32:55;;;;;;;6.32;3.03;;;;;;;;;;5066648;28;40354;-73
2023/12/14 12:35:23;;;;;;;5.75;2.65;;;;;;;;;;5063286;28;42052;-73
2023/12/14 12:37:54;;;;;;;4.78;2.30;;;;;;;;;;5051650;28;42167;-73
2023/12/14 12:40:22;;;;;;;5.78;2.72;;;;;;;;;;5048121;28;40315;-72
2023/12/14 12:42:50;;;;;;;4.07;3.20;;;;;;;;;;5051098;28;41959;-73
2023/12/14 12:45:22;;;;;;;5.00;2.38;;;;;;;;;;5050427;28;42480;-73
2023/12/14 12:47:49;;;;;;;8.50;2.88;;;;;;;;;;5047788;28;39888;-73
2023/12/14 12:50:18;;;;;;;4.72;2.67;;;;;;;;;;5064783;28;41627;-73
2023/12/14 12:52:48;;;;;;;5.50;2.97;;;;;;;;;;5064741;28;41030;-73
2023/12/14 12:55:16;;;;;;;5.63;3.35;;;;;;;;;;5079061;28;41142;-73
2023/12/14 12:57:44;;;;;;;5.47;3.30;;;;;;;;;;5077755;28;43062;-73
2023/12/14 13:00:13;;;;;;;5.95;2.90;;;;;;;;;;5071320;28;41827;-73
2023/12/14 13:02:42;;;;;;;8.45;3.20;;;;;;;;;;5075916;28;41635;-73
2023/12/14 13:05:10;;;;;;;6.40;2.65;;;;;;;;;;5068016;28;41603;-73
2023/12/14 13:07:44;;;;;;;7.50;3.65;;;;;;;;;;5074207;28;41078;-73
2023/12/14 13:10:12;;;;;;;7.03;3.10;;;;;;;;;;5080247;28;41615;-72
2023/12/14 13:12:56;;;;;;;8.50;3.10;;;;;;;;;;5065432;28;41232;-73
2023/12/14 13:15:25;;;;;;;3.10;2.45;;;;;;;;;;5065999;28;42703;-73
2023/12/14 13:17:54;;;;;;;6.43;2.85;;;;;;;;;;5065966;28;42184;-73
2023/12/14 13:20:22;;;;;;;6.65;3.15;;;;;;;;;;5065893;28;40964;-73
2023/12/14 13:22:50;;;;;;;4.78;3.35;;;;;;;;;;5066707;28;42585;-72
2023/12/14 13:25:19;;;;;;;8.30;3.45;;;;;;;;;;5066185;28;43209;-73
2023/12/14 13:27:47;;;;;;;5.90;2.67;;;;;;;;;;5065338;28;41160;-73
2023/12/14 13:30:17;;;;;;;5.22;3.42;;;;;;;;;;5076616;28;41577;-73
2023/12/14 13:32:46;;;;;;;4.05;2.25;;;;;;;;;;5069327;28;41111;-73
2023/12/14 13:35:16;;;;;;;5.57;3.40;;;;;;;;;;5076421;28;42268;-73
2023/12/14 13:37:44;;;;;;;6.03;2.80;;;;;;;;;;5066006;28;42734;-73
2023/12/14 13:40:12;;;;;;;6.22;3.25;;;;;;;;;;5065842;28;40443;-73
2023/12/14 13:42:42;;;;;;;7.20;2.40;;;;;;;;;;5077816;28;41563;-72
2023/12/14 13:45:28;;;;;;;4.63;3.00;;;;;;;;;;5062836;28;42753;-73
2023/12/14 13:47:58;;;;;;;4.40;2.65;;;;;;;;;;5079022;28;41376;-73
2023/12/14 13:50:27;;;;;;;3.35;2.70;;;;;;;;;;5065529;28;42107;-73
2023/12/14 13:52:56;;;;;;;2.17;1.98;;;;;;;;;;5068152;28;42179;-73
2023/12/14 13:55:25;;;;;;;3.63;2.50;;;;;;;;;;5065117;28;41515;-73
2023/12/14 13:57:53;;;;;;;3.15;1.75;;;;;;;;;;5079027;28;41902;-73
2023/12/14 14:00:21;;;;;;;7.57;2.72;;;;;;;;;;5088664;28;40506;-73
2023/12/14 14:02:49;;;;;;;5.63;2.72;;;;;;;;;;5077022;28;42681;-73
2023/12/14 14:05:17;;;;;;;4.00;2.40;;;;;;;;;;5068723;28;42033;-73
2023/12/14 14:07:47;;;;;;;5.75;2.95;;;;;;;;;;5067838;28;39612;-73
2023/12/14 14:10:15;;;;;;;3.60;2.25;;;;;;;;;;5067748;28;41850;-73
2023/12/14 14:12:43;;;;;;;4.18;2.58;;;;;;;;;;5069075;28;41986;-73
2023/12/14 14:15:11;;;;;;;3.28;2.65;;;;;;;;;;5068888;28;39827;-73
2023/12/14 14:17:39;;;;;;;3.30;2.90;;;;;;;;;;5056139;28;41859;-73
2023/12/14 14:20:08;;;;;;;5.82;2.72;;;;;;;;;;5069469;28;40511;-73
2023/12/14 14:22:37;;;;;;;5.65;2.33;;;;;;;;;;5067725;28;41435;-73
2023/12/14 14:25:07;;;;;;;4.72;2.90;;;;;;;;;;5078688;28;42684;-73
2023/12/14 14:27:35;;;;;;;3.65;2.70;;;;;;;;;;5070705;28;40353;-73
2023/12/14 14:30:03;;;;;;;5.07;2.78;;;;;;;;;;5068022;28;41477;-73
2023/12/14 14:32:32;;;;;;;3.53;2.38;;;;;;;;;;5067214;28;43766;-73
2023/12/14 14:35:01;;;;;;;3.70;2.13;;;;;;;;;;5067417;28;41165;-73
2023/12/14 14:37:29;;;;;;;3.00;2.45;;;;;;;;;;5069219;28;41939;-73
2023/12/14 14:39:57;;;;;;;4.82;2.03;;;;;;;;;;5065904;28;40443;-73
2023/12/14 14:42:26;;;;;;;3.20;2.75;;;;;;;;;;5069172;28;42120;-73
2023/12/14 14:44:54;;;;;;;3.05;2.10;;;;;;;;;;5066600;28;42041;-73
2023/12/14 14:47:23;;;;;;;3.30;2.42;;;;;;;;;;5068978;28;40302;-73
2023/12/14 14:49:51;;;;;;;2.47;2.28;;;;;;;;;;5067849;28;42881;-73
2023/12/14 14:52:19;;;;;;;3.85;3.00;;;;;;;;;;5068642;28;42857;-73